Time;durP1;ratioP1;P1;durP2;ratioP2;P2;SDS_P1;SDS_P2;PMS_P1;PMS_P2;Temp;Humidity;BMP_temperature;BMP_pressure;BME280_temperature;BME280_humidity;BME280_pressure;Samples;Min_cycle;Max_cycle;Signal;HPM_P1;HPM_P2
2022/09/15 00:02:01;;;;;;;;;;;;;;;17.30;59.67;99998.88;4956374;28;19926;-59
2022/09/15 00:04:27;;;;;;;;;;;;;;;17.27;59.91;100001.84;4958858;28;19937;-59
2022/09/15 00:06:52;;;;;;;;;;;;;;;17.26;59.99;99996.66;4952102;28;20021;-55
2022/09/15 00:09:18;;;;;;;;;;;;;;;17.24;60.10;99991.50;4949450;28;19961;-56
2022/09/15 00:11:43;;;;;;;;;;;;;;;17.24;59.94;99991.50;4953658;28;20389;-55
2022/09/15 00:14:09;;;;;;;;;;;;;;;17.22;60.02;99988.16;4950911;28;20667;-58
2022/09/15 00:16:35;;;;;;;;;;;;;;;17.19;60.01;99988.44;4953245;28;19925;-55
2022/09/15 00:19:00;;;;;;;;;;;;;;;17.17;60.08;99985.94;4957204;28;19984;-54
2022/09/15 00:21:27;;;;;;;;;;;;;;;17.18;60.08;99986.75;4950500;28;19926;-57
2022/09/15 00:23:53;;;;;;;;;;;;;;;17.16;60.07;99981.63;4954899;28;19977;-54
2022/09/15 00:26:24;;;;;;;;;;;;;;;17.15;60.18;99985.25;4948952;28;19930;-54
2022/09/15 00:28:50;;;;;;;;;;;;;;;17.13;60.22;99983.75;4952673;28;19930;-57
2022/09/15 00:31:17;;;;;;;;;;;;;;;17.10;60.31;99982.19;4951883;28;19930;-58
2022/09/15 00:33:45;;;;;;;;;;;;;;;17.10;60.31;99982.19;4954714;28;19966;-55
2022/09/15 00:36:11;;;;;;;;;;;;;;;17.08;60.41;99980.69;4955280;28;20045;-54
2022/09/15 00:38:37;;;;;;;;;;;;;;;17.04;60.33;99980.97;4952703;28;19932;-55
2022/09/15 00:41:03;;;;;;;;;;;;;;;17.03;60.44;99981.97;4960716;28;20035;-56
2022/09/15 00:43:47;;;;;;;;;;;;;;;17.01;60.34;99980.44;4961191;28;20028;-56
2022/09/15 00:46:13;;;;;;;;;;;;;;;16.97;60.57;99976.41;4964552;28;20016;-54
2022/09/15 00:48:41;;;;;;;;;;;;;;;16.96;60.72;99988.88;4965248;28;19992;-55
2022/09/15 00:51:07;;;;;;;;;;;;;;;16.93;60.64;99978.50;4966769;28;20401;-56
2022/09/15 00:53:34;;;;;;;;;;;;;;;16.90;60.77;99978.78;4964567;28;20607;-56
2022/09/15 00:56:01;;;;;;;;;;;;;;;16.86;60.60;99977.44;4961945;28;19926;-54
2022/09/15 00:58:26;;;;;;;;;;;;;;;16.83;61.03;99977.72;4952272;28;19930;-55
2022/09/15 01:00:56;;;;;;;;;;;;;;;16.77;61.09;99974.66;4957596;28;19929;-56
2022/09/15 01:03:22;;;;;;;;;;;;;;;16.74;60.92;99979.44;4958828;28;20005;-57
2022/09/15 01:05:52;;;;;;;;;;;;;;;16.73;61.12;99978.59;4957157;28;19929;-55
2022/09/15 01:08:35;;;;;;;;;;;;;;;16.68;61.19;99972.91;4953953;28;20317;-55
2022/09/15 01:11:01;;;;;;;;;;;;;;;16.63;61.38;99972.50;4956366;28;20061;-57
2022/09/15 01:13:28;;;;;;;;;;;;;;;16.57;61.31;99973.09;4960359;28;19984;-57
2022/09/15 01:16:10;;;;;;;;;;;;;;;16.51;61.48;99969.19;4959456;28;19922;-57
2022/09/15 01:18:54;;;;;;;;;;;;;;;16.46;61.54;99977.59;4957200;28;20406;-59
2022/09/15 01:21:38;;;;;;;;;;;;;;;16.42;61.51;99968.25;4958963;28;19922;-55
2022/09/15 01:24:25;;;;;;;;;;;;;;;16.39;61.39;99971.22;4955913;28;19918;-58
2022/09/15 01:27:17;;;;;;;;;;;;;;;16.34;61.60;99981.44;4958311;28;19926;-54
2022/09/15 01:30:00;;;;;;;;;;;;;;;16.28;61.68;99982.84;4960614;28;19941;-56
2022/09/15 01:35:13;;;;;;;;;;;;;;;16.17;61.72;99975.06;4964366;28;19977;-58
2022/09/15 01:37:42;;;;;;;;;;;;;;;16.14;61.65;99984.13;4959274;28;19922;-55
2022/09/15 01:40:08;;;;;;;;;;;;;;;16.11;61.73;99984.41;4954848;28;19926;-56
2022/09/15 01:42:35;;;;;;;;;;;;;;;16.09;61.76;99982.88;4961804;28;19926;-57
2022/09/15 01:45:04;;;;;;;;;;;;;;;16.03;61.82;99981.66;4961538;28;19926;-56
2022/09/15 01:47:29;;;;;;;;;;;;;;;15.98;61.83;99990.03;4961251;28;20449;-56
2022/09/15 01:49:54;;;;;;;;;;;;;;;15.93;62.05;99980.84;4960020;28;20025;-55
2022/09/15 01:52:21;;;;;;;;;;;;;;;15.92;62.13;99984.47;4960143;28;20069;-54
2022/09/15 01:54:49;;;;;;;;;;;;;;;15.91;62.11;99988.09;4960675;28;19925;-57
2022/09/15 01:57:20;;;;;;;;;;;;;;;15.90;62.21;99991.72;4970024;28;21089;-58
2022/09/15 01:59:46;;;;;;;;;;;;;;;15.90;61.99;99983.78;4964728;28;19941;-56
2022/09/15 02:02:15;;;;;;;;;;;;;;;15.89;62.22;99987.41;4960665;28;19926;-54
2022/09/15 02:04:45;;;;;;;;;;;;;;;15.88;61.98;99985.72;4956273;28;19926;-56
2022/09/15 02:07:19;;;;;;;;;;;;;;;15.89;62.11;99984.75;4953978;28;20401;-57
2022/09/15 02:09:55;;;;;;;;;;;;;;;15.85;62.04;99985.03;4958765;28;20370;-57
2022/09/15 02:12:32;;;;;;;;;;;;;;;15.82;62.17;99985.28;4961543;28;20374;-55
2022/09/15 02:14:59;;;;;;;;;;;;;;;15.80;62.18;99986.41;4959975;28;19933;-54
2022/09/15 02:17:28;;;;;;;;;;;;;;;15.78;62.20;99983.03;4970131;28;20623;-54
2022/09/15 02:19:56;;;;;;;;;;;;;;;15.78;62.08;99981.25;4960689;28;20421;-57
2022/09/15 02:22:27;;;;;;;;;;;;;;;15.77;62.24;99982.22;4959715;28;19992;-56
2022/09/15 02:25:01;;;;;;;;;;;;;;;15.75;62.32;99984.19;4955634;28;19926;-58
2022/09/15 02:27:28;;;;;;;;;;;;;;;15.74;62.32;99981.66;4959020;28;19965;-54
2022/09/15 02:29:56;;;;;;;;;;;;;;;15.72;62.20;99979.16;4964432;28;19957;-58
2022/09/15 02:32:24;;;;;;;;;;;;;;;15.69;62.25;99979.41;4959777;28;19933;-57
2022/09/15 02:34:50;;;;;;;;;;;;;;;15.66;62.23;99980.53;4958716;28;20406;-57
2022/09/15 02:37:17;;;;;;;;;;;;;;;15.65;62.27;99975.41;4962358;28;19981;-57
2022/09/15 02:39:46;;;;;;;;;;;;;;;15.64;62.33;99981.69;4956581;28;19926;-54
2022/09/15 02:42:11;;;;;;;;;;;;;;;15.63;62.32;99969.38;4965872;28;20381;-57
2022/09/15 02:44:37;;;;;;;;;;;;;;;15.63;62.38;99980.00;4964645;28;19929;-55
2022/09/15 02:47:02;;;;;;;;;;;;;;;15.59;62.46;99973.28;4957353;28;20252;-58
2022/09/15 02:49:28;;;;;;;;;;;;;;;15.57;62.37;99970.78;4961530;28;19930;-55
2022/09/15 02:51:53;;;;;;;;;;;;;;;15.57;62.34;99975.25;4958650;28;19969;-56
2022/09/15 02:54:19;;;;;;;;;;;;;;;15.54;62.44;99974.53;4958612;28;22035;-55
2022/09/15 02:56:45;;;;;;;;;;;;;;;15.53;62.58;99975.50;4962879;28;19938;-54
2022/09/15 02:59:11;;;;;;;;;;;;;;;15.53;62.67;99966.75;4962588;28;19925;-55
2022/09/15 03:01:37;;;;;;;;;;;;;;;15.54;62.59;99971.88;4956671;28;19922;-54
2022/09/15 03:04:03;;;;;;;;;;;;;;;15.53;62.60;99975.50;4960363;28;19933;-53
2022/09/15 03:06:34;;;;;;;;;;;;;;;15.51;62.58;99969.50;4964119;28;19922;-57
2022/09/15 03:09:02;;;;;;;;;;;;;;;15.49;62.65;99970.63;4959483;28;20394;-57
2022/09/15 03:11:28;;;;;;;;;;;;;;;15.45;62.83;99972.75;4960313;28;19973;-55
2022/09/15 03:13:54;;;;;;;;;;;;;;;15.44;62.88;99973.72;4959394;28;20014;-57
2022/09/15 03:16:20;;;;;;;;;;;;;;;15.43;62.75;99972.03;4964107;28;19949;-55
2022/09/15 03:18:45;;;;;;;;;;;;;;;15.40;62.84;99969.66;4963481;28;20410;-59
2022/09/15 03:21:12;;;;;;;;;;;;;;;15.39;62.84;99962.69;4959835;28;19922;-58
2022/09/15 03:23:38;;;;;;;;;;;;;;;15.38;62.79;99971.59;4961354;28;20278;-56
2022/09/15 03:26:03;;;;;;;;;;;;;;;15.38;62.81;99975.13;4958218;28;20562;-54
2022/09/15 03:28:29;;;;;;;;;;;;;;;15.36;62.69;99968.25;4958615;28;19930;-55
2022/09/15 03:30:54;;;;;;;;;;;;;;;15.33;62.82;99956.13;4963351;28;19926;-54
2022/09/15 03:33:20;;;;;;;;;;;;;;;15.31;62.91;99967.84;4965154;28;20025;-57
2022/09/15 03:35:46;;;;;;;;;;;;;;;15.28;62.80;99961.00;4960162;28;19922;-57
2022/09/15 03:38:11;;;;;;;;;;;;;;;15.27;62.80;99958.50;4964345;28;20001;-57
2022/09/15 03:40:36;;;;;;;;;;;;;;;15.26;62.81;99962.13;4955147;28;24425;-54
2022/09/15 03:43:02;;;;;;;;;;;;;;;15.23;62.89;99973.84;4959479;28;20016;-57
2022/09/15 03:45:27;;;;;;;;;;;;;;;15.21;63.00;99973.97;4962276;28;19928;-58
2022/09/15 03:47:52;;;;;;;;;;;;;;;15.21;63.03;99966.00;4964670;28;19930;-54
2022/09/15 03:50:18;;;;;;;;;;;;;;;15.19;63.03;99970.63;4967237;28;19925;-55
2022/09/15 03:52:43;;;;;;;;;;;;;;;15.18;63.13;99966.31;4963053;28;19948;-56
2022/09/15 03:55:09;;;;;;;;;;;;;;;15.18;63.03;99962.81;4957510;28;19926;-58
2022/09/15 03:57:34;;;;;;;;;;;;;;;15.17;63.03;99964.63;4961514;28;20063;-56
2022/09/15 04:00:00;;;;;;;;;;;;;;;15.16;63.04;99968.25;4957386;28;19973;-56
2022/09/15 04:02:25;;;;;;;;;;;;;;;15.15;63.07;99963.94;4955520;28;20059;-56
2022/09/15 04:04:51;;;;;;;;;;;;;;;15.13;63.12;99960.56;4957373;28;19930;-54
2022/09/15 04:07:16;;;;;;;;;;;;;;;15.11;63.15;99964.34;4959995;28;20298;-55
2022/09/15 04:09:41;;;;;;;;;;;;;;;15.08;63.17;99961.00;4957729;28;20020;-54
2022/09/15 04:12:06;;;;;;;;;;;;;;;15.03;63.28;99952.59;4955175;28;20390;-55
2022/09/15 04:14:32;;;;;;;;;;;;;;;15.02;63.23;99944.81;4955018;28;19930;-56
2022/09/15 04:16:57;;;;;;;;;;;;;;;15.02;63.21;99950.09;4958590;28;19926;-54
2022/09/15 04:19:23;;;;;;;;;;;;;;;15.00;63.22;99947.56;4964789;28;19993;-53
2022/09/15 04:21:48;;;;;;;;;;;;;;;14.99;63.16;99953.03;4961551;28;19972;-54
2022/09/15 04:24:13;;;;;;;;;;;;;;;14.97;63.26;99947.03;4957172;28;20321;-55
2022/09/15 04:26:38;;;;;;;;;;;;;;;14.99;63.24;99948.53;4963721;28;19930;-54
2022/09/15 04:29:05;;;;;;;;;;;;;;;14.98;63.25;99944.22;4951318;28;19934;-57
2022/09/15 04:31:30;;;;;;;;;;;;;;;14.98;63.07;99948.69;4962474;28;19926;-55
2022/09/15 04:33:56;;;;;;;;;;;;;;;14.94;63.25;99943.66;4965508;28;19925;-53
2022/09/15 04:36:22;;;;;;;;;;;;;;;14.95;63.32;99949.81;4964166;28;19948;-54
2022/09/15 04:38:49;;;;;;;;;;;;;;;14.93;63.22;99951.75;4965205;28;20337;-54
2022/09/15 04:41:15;;;;;;;;;;;;;;;14.92;63.29;99950.91;4960844;28;20325;-54
2022/09/15 04:43:42;;;;;;;;;;;;;;;14.91;63.32;99945.75;4964495;28;20494;-54
2022/09/15 04:46:07;;;;;;;;;;;;;;;14.89;63.42;99951.22;4962259;28;19933;-54
2022/09/15 04:48:33;;;;;;;;;;;;;;;14.87;63.30;99947.84;4966073;28;19930;-54
2022/09/15 04:51:02;;;;;;;;;;;;;;;14.86;63.31;99946.19;4964003;28;19990;-54
2022/09/15 04:53:28;;;;;;;;;;;;;;;14.85;63.30;99944.50;4969399;28;20329;-55
2022/09/15 04:56:00;;;;;;;;;;;;;;;14.84;63.40;99942.81;4963331;28;19925;-54
2022/09/15 04:58:25;;;;;;;;;;;;;;;14.83;63.37;99946.44;4965801;28;19992;-54
2022/09/15 05:00:50;;;;;;;;;;;;;;;14.84;63.32;99949.91;4964092;28;20493;-53
2022/09/15 05:03:15;;;;;;;;;;;;;;;14.83;63.46;99948.22;4962111;28;19933;-54
2022/09/15 05:05:41;;;;;;;;;;;;;;;14.84;63.47;99947.25;4960568;28;20009;-54
2022/09/15 05:08:07;;;;;;;;;;;;;;;14.83;63.47;99941.16;4967067;28;19958;-53
2022/09/15 05:10:32;;;;;;;;;;;;;;;14.83;63.56;99943.78;4962176;28;20807;-55
2022/09/15 05:12:57;;;;;;;;;;;;;;;14.84;63.47;99937.53;4967418;28;19922;-55
2022/09/15 05:15:23;;;;;;;;;;;;;;;14.86;63.38;99935.56;4966813;28;19930;-55
2022/09/15 05:17:48;;;;;;;;;;;;;;;14.88;63.51;99931.00;4964525;28;19929;-54
2022/09/15 05:20:14;;;;;;;;;;;;;;;14.88;63.47;99925.69;4967343;28;19926;-55
2022/09/15 05:22:39;;;;;;;;;;;;;;;14.88;63.51;99931.00;4965041;28;19925;-54
2022/09/15 05:25:04;;;;;;;;;;;;;;;14.89;63.47;99926.50;4963584;28;19933;-54
2022/09/15 05:27:31;;;;;;;;;;;;;;;14.88;63.46;99928.34;4963715;28;20024;-54
2022/09/15 05:29:57;;;;;;;;;;;;;;;14.90;63.42;99931.66;4966133;28;19933;-54
2022/09/15 05:32:22;;;;;;;;;;;;;;;14.89;63.47;99937.09;4967544;28;19922;-54
2022/09/15 05:34:47;;;;;;;;;;;;;;;14.89;63.66;99940.59;4966196;28;19926;-54
2022/09/15 05:37:13;;;;;;;;;;;;;;;14.90;63.65;99934.31;4966410;28;20301;-55
2022/09/15 05:39:39;;;;;;;;;;;;;;;14.94;63.71;99937.53;4967058;28;19944;-54
2022/09/15 05:42:05;;;;;;;;;;;;;;;14.97;63.84;99936.44;4965938;28;19937;-54
2022/09/15 05:44:30;;;;;;;;;;;;;;;14.98;63.97;99932.81;4965847;28;20008;-55
2022/09/15 05:46:55;;;;;;;;;;;;;;;15.01;63.75;99945.78;4967236;28;19933;-54
2022/09/15 05:49:21;;;;;;;;;;;;;;;15.00;63.80;99952.88;4967319;28;20342;-56
2022/09/15 05:51:46;;;;;;;;;;;;;;;15.00;63.95;99949.41;4963651;28;19926;-54
2022/09/15 05:54:11;;;;;;;;;;;;;;;15.02;64.01;99950.09;4963071;28;19926;-55
2022/09/15 05:56:37;;;;;;;;;;;;;;;15.03;64.07;99942.00;4963417;28;19930;-55
2022/09/15 05:59:02;;;;;;;;;;;;;;;15.08;64.32;99938.94;4962422;28;19926;-53
2022/09/15 06:01:28;;;;;;;;;;;;;;;15.12;63.96;99945.66;4965509;28;20029;-54
2022/09/15 06:03:54;;;;;;;;;;;;;;;15.18;63.93;99950.41;4964523;28;19933;-54
2022/09/15 06:06:20;;;;;;;;;;;;;;;15.24;63.91;99941.88;4961864;28;20009;-55
2022/09/15 06:08:48;;;;;;;;;;;;;;;15.27;63.93;99947.88;4965990;28;19926;-54
2022/09/15 06:11:24;;;;;;;;;;;;;;;15.30;63.89;99950.28;4965074;28;19949;-54
2022/09/15 06:13:49;;;;;;;;;;;;;;;15.34;63.86;99959.63;4966014;28;19918;-55
2022/09/15 06:16:18;;;;;;;;;;;;;;;15.37;63.97;99954.03;4964066;28;19948;-56
2022/09/15 06:18:43;;;;;;;;;;;;;;;15.39;63.91;99946.78;4961537;28;20004;-54
2022/09/15 06:21:10;;;;;;;;;;;;;;;15.42;63.92;99949.16;4962880;28;19918;-55
2022/09/15 06:23:36;;;;;;;;;;;;;;;15.46;63.94;99950.56;4964247;28;19978;-54
2022/09/15 06:26:03;;;;;;;;;;;;;;;15.51;63.81;99956.25;4962220;28;19922;-54
2022/09/15 06:28:28;;;;;;;;;;;;;;;15.55;63.69;99952.34;4965252;28;19934;-54
2022/09/15 06:30:53;;;;;;;;;;;;;;;15.57;63.72;99957.53;4969691;28;20314;-54
2022/09/15 06:33:19;;;;;;;;;;;;;;;15.60;63.88;99956.41;4971232;28;19930;-54
2022/09/15 06:35:44;;;;;;;;;;;;;;;15.65;63.70;99962.97;4966008;28;19926;-54
2022/09/15 06:38:10;;;;;;;;;;;;;;;15.68;63.93;99964.47;4970879;28;19981;-54
2022/09/15 06:40:36;;;;;;;;;;;;;;;15.72;63.78;99965.88;4965251;28;19930;-54
2022/09/15 06:43:01;;;;;;;;;;;;;;;15.74;63.69;99960.44;4971137;28;19944;-54
2022/09/15 06:45:28;;;;;;;;;;;;;;;15.75;63.93;99962.09;4965761;28;19969;-57
2022/09/15 06:47:53;;;;;;;;;;;;;;;15.79;63.81;99959.06;4969222;28;20008;-56
2022/09/15 06:50:19;;;;;;;;;;;;;;;15.83;63.83;99955.13;4965876;28;20455;-54
2022/09/15 06:52:44;;;;;;;;;;;;;;;15.88;63.82;99959.19;4970482;28;19934;-54
2022/09/15 06:55:09;;;;;;;;;;;;;;;15.90;63.85;99970.50;4969283;28;19956;-56
2022/09/15 06:57:34;;;;;;;;;;;;;;;15.90;63.54;99975.81;4969104;28;20382;-54
2022/09/15 07:00:00;;;;;;;;;;;;;;;15.91;63.59;99965.03;4966261;28;19926;-54
2022/09/15 07:02:26;;;;;;;;;;;;;;;15.92;63.52;99968.56;4962023;28;21299;-55
2022/09/15 07:04:51;;;;;;;;;;;;;;;15.91;63.54;99969.53;4967659;28;19937;-55
2022/09/15 07:07:17;;;;;;;;;;;;;;;15.93;63.57;99981.66;4969388;28;20394;-57
2022/09/15 07:09:42;;;;;;;;;;;;;;;15.92;63.43;99976.50;4969787;28;20053;-54
2022/09/15 07:12:07;;;;;;;;;;;;;;;15.92;63.62;99969.38;4970603;28;19933;-54
2022/09/15 07:14:33;;;;;;;;;;;;;;;15.94;63.63;99975.38;4967121;28;19981;-55
2022/09/15 07:16:58;;;;;;;;;;;;;;;15.97;63.47;99977.75;4968922;28;19923;-56
2022/09/15 07:19:23;;;;;;;;;;;;;;;15.96;63.51;99980.53;4966170;28;20424;-55
2022/09/15 07:21:51;;;;;;;;;;;;;;;15.94;63.51;99993.94;4971053;28;19922;-57
2022/09/15 07:24:17;;;;;;;;;;;;;;;15.93;63.56;99994.94;4969442;28;20412;-55
2022/09/15 07:26:42;;;;;;;;;;;;;;;15.94;63.48;99995.78;4969303;28;19926;-54
2022/09/15 07:29:08;;;;;;;;;;;;;;;15.94;63.55;99990.47;4967002;28;19930;-54
2022/09/15 07:31:34;;;;;;;;;;;;;;;15.93;63.40;99994.09;4966289;28;19933;-55
2022/09/15 07:34:00;;;;;;;;;;;;;;;15.95;63.37;99990.31;4967345;28;19984;-55
2022/09/15 07:36:25;;;;;;;;;;;;;;;15.98;63.31;99990.03;4970254;28;19922;-56
2022/09/15 07:38:51;;;;;;;;;;;;;;;15.99;63.32;99986.41;4965373;28;19926;-55
2022/09/15 07:41:20;;;;;;;;;;;;;;;16.02;63.46;99993.25;4968264;28;19933;-54
2022/09/15 07:43:50;;;;;;;;;;;;;;;16.06;63.35;99997.28;4965662;28;19922;-54
2022/09/15 07:46:15;;;;;;;;;;;;;;;16.09;63.48;99999.66;4967115;28;20028;-54
2022/09/15 07:48:44;;;;;;;;;;;;;;;16.11;63.29;100000.34;4969486;28;20051;-54
2022/09/15 07:51:10;;;;;;;;;;;;;;;16.13;62.93;100008.16;4969298;28;19930;-55
2022/09/15 07:53:35;;;;;;;;;;;;;;;16.15;63.29;100001.72;4968857;28;19980;-56
2022/09/15 07:56:00;;;;;;;;;;;;;;;16.19;63.08;99998.78;4969217;28;20289;-55
2022/09/15 07:58:26;;;;;;;;;;;;;;;16.23;63.05;100008.16;4963294;28;20069;-55
2022/09/15 08:00:51;;;;;;;;;;;;;;;16.22;63.00;99995.88;4967160;28;19937;-55
2022/09/15 08:03:17;;;;;;;;;;;;;;;16.26;62.97;99999.91;4965595;28;19978;-56
2022/09/15 08:05:42;;;;;;;;;;;;;;;16.32;62.87;99999.31;4967406;28;20453;-55
2022/09/15 08:08:08;;;;;;;;;;;;;;;16.33;62.58;100001.00;4966795;28;20005;-55
2022/09/15 08:10:33;;;;;;;;;;;;;;;16.34;62.60;100001.81;4968428;28;19932;-55
2022/09/15 08:12:58;;;;;;;;;;;;;;;16.37;62.70;100009.50;4968816;28;19948;-56
2022/09/15 08:15:24;;;;;;;;;;;;;;;16.41;62.46;100003.75;4966224;28;19933;-55
2022/09/15 08:17:49;;;;;;;;;;;;;;;16.44;62.47;100006.13;4967282;28;19922;-55
2022/09/15 08:20:14;;;;;;;;;;;;;;;16.46;62.50;100004.16;4965094;28;19953;-55
2022/09/15 08:22:40;;;;;;;;;;;;;;;16.51;62.38;100008.22;4967147;28;19931;-54
2022/09/15 08:25:06;;;;;;;;;;;;;;;16.54;62.14;100010.56;4969870;28;19922;-54
2022/09/15 08:27:31;;;;;;;;;;;;;;;16.54;62.26;100010.56;4965408;28;19929;-56
2022/09/15 08:29:57;;;;;;;;;;;;;;;16.56;62.08;100013.94;4966332;28;19986;-55
2022/09/15 08:32:22;;;;;;;;;;;;;;;16.61;62.21;100014.31;4966172;28;19918;-56
2022/09/15 08:34:47;;;;;;;;;;;;;;;16.67;62.00;100011.09;4967462;28;20420;-55
2022/09/15 08:37:13;;;;;;;;;;;;;;;16.72;62.12;100007.97;4967190;28;20024;-59
2022/09/15 08:39:38;;;;;;;;;;;;;;;16.75;61.77;100013.00;4965169;28;20349;-54
2022/09/15 08:42:04;;;;;;;;;;;;;;;16.79;61.84;100002.91;4965744;28;19930;-55
2022/09/15 08:44:29;;;;;;;;;;;;;;;16.81;61.47;100007.09;4967865;28;20349;-55
2022/09/15 08:46:58;;;;;;;;;;;;;;;16.81;61.27;100022.22;4965341;28;20402;-55
2022/09/15 08:49:26;;;;;;;;;;;;;;;16.79;61.44;100011.72;4966177;28;19996;-54
2022/09/15 08:51:52;;;;;;;;;;;;;;;16.82;61.10;100026.53;4965696;28;19922;-55
2022/09/15 08:54:21;;;;;;;;;;;;;;;16.83;61.32;100030.88;4967196;28;20313;-54
2022/09/15 08:56:47;;;;;;;;;;;;;;;16.83;61.37;100021.06;4965817;28;19925;-57
2022/09/15 08:59:16;;;;;;;;;;;;;;;16.86;61.08;100027.94;4964489;28;20521;-55
2022/09/15 09:01:48;;;;;;;;;;;;;;;16.89;61.00;100019.63;4966177;28;19921;-56
2022/09/15 09:04:13;;;;;;;;;;;;;;;16.95;60.78;100039.50;4965467;28;19926;-55
2022/09/15 09:06:41;;;;;;;;;;;;;;;16.97;60.72;100027.75;4966120;28;19925;-55
2022/09/15 09:09:27;;;;;;;;;;;;;;;16.99;60.51;100020.47;4965231;28;19972;-54
2022/09/15 09:11:55;;;;;;;;;;;;;;;17.02;60.37;100030.78;4965288;28;19961;-56
2022/09/15 09:14:29;;;;;;;;;;;;;;;17.02;60.10;100017.50;4964393;28;19929;-55
2022/09/15 09:16:54;;;;;;;;;;;;;;;17.04;60.13;100017.38;4968028;28;20005;-55
2022/09/15 09:19:23;;;;;;;;;;;;;;;17.07;60.16;100033.03;4964812;28;19993;-56
2022/09/15 09:21:57;;;;;;;;;;;;;;;17.08;59.92;100024.06;4964589;28;19929;-54
2022/09/15 09:24:31;;;;;;;;;;;;;;;17.06;59.75;100032.16;4964418;28;19929;-55
2022/09/15 09:26:57;;;;;;;;;;;;;;;17.03;59.55;100007.72;4966858;28;20036;-55
2022/09/15 09:29:34;;;;;;;;;;;;;;;17.03;59.89;100015.69;4966603;28;20021;-54
2022/09/15 09:32:00;;;;;;;;;;;;;;;17.02;59.51;100020.16;4965968;28;20414;-54
2022/09/15 09:34:47;;;;;;;;;;;;;;;17.01;59.26;100017.66;4964416;28;20012;-54
2022/09/15 09:37:14;;;;;;;;;;;;;;;17.01;59.26;100018.50;4966133;28;19929;-55
2022/09/15 09:39:39;;;;;;;;;;;;;;;17.04;59.29;100015.53;4964663;28;19929;-55
2022/09/15 09:42:06;;;;;;;;;;;;;;;17.06;58.96;100015.41;4963417;28;19918;-55
2022/09/15 09:44:32;;;;;;;;;;;;;;;17.10;58.88;100007.97;4964584;28;20017;-56
2022/09/15 09:46:58;;;;;;;;;;;;;;;17.15;58.91;100013.66;4965631;28;19933;-55
2022/09/15 09:49:25;;;;;;;;;;;;;;;17.20;58.94;100011.38;4965155;28;20082;-54
2022/09/15 09:51:51;;;;;;;;;;;;;;;17.23;58.89;100011.09;4965506;28;19922;-54
2022/09/15 09:54:19;;;;;;;;;;;;;;;17.28;58.42;100022.13;4966598;28;19949;-55
2022/09/15 09:56:45;;;;;;;;;;;;;;;17.27;58.37;100007.16;4949797;28;19937;-56
2022/09/15 09:59:29;;;;;;;;;;;;;;;17.28;58.24;100014.13;4966420;28;19930;-54
2022/09/15 10:02:10;;;;;;;;;;;;;;;17.29;58.02;100015.81;4964888;28;19919;-57
2022/09/15 10:04:39;;;;;;;;;;;;;;;17.28;58.10;100007.97;4968655;28;19925;-54
2022/09/15 10:07:04;;;;;;;;;;;;;;;17.27;57.73;100007.16;4965465;28;20041;-55
2022/09/15 10:09:30;;;;;;;;;;;;;;;17.29;57.69;100007.84;4968997;28;19930;-55
2022/09/15 10:11:57;;;;;;;;;;;;;;;17.28;57.58;100008.81;4969780;28;19972;-56
2022/09/15 10:14:41;;;;;;;;;;;;;;;17.29;57.39;100010.50;4969792;28;19926;-54
2022/09/15 10:17:10;;;;;;;;;;;;;;;17.27;57.18;99998.31;4968677;28;19922;-54
2022/09/15 10:19:41;;;;;;;;;;;;;;;17.27;57.36;100006.28;4969021;28;19926;-54
2022/09/15 10:22:06;;;;;;;;;;;;;;;17.26;57.21;99999.31;4969805;28;19973;-55
2022/09/15 10:24:37;;;;;;;;;;;;;;;17.25;56.94;100008.28;4969787;28;19921;-54
2022/09/15 10:27:20;;;;;;;;;;;;;;;17.24;57.04;100007.44;4971466;28;19926;-54
2022/09/15 10:29:45;;;;;;;;;;;;;;;17.26;56.95;100017.91;4969687;28;19926;-54
2022/09/15 10:32:24;;;;;;;;;;;;;;;17.30;56.82;100012.19;4971895;28;19930;-57
2022/09/15 10:35:00;;;;;;;;;;;;;;;17.36;56.72;100011.56;4969444;28;19926;-55
2022/09/15 10:37:30;;;;;;;;;;;;;;;17.41;56.60;100012.94;4967286;28;20302;-54
2022/09/15 10:39:58;;;;;;;;;;;;;;;17.44;56.45;100024.09;4969092;28;19941;-55
2022/09/15 10:42:39;;;;;;;;;;;;;;;17.44;55.80;100009.97;4968934;28;19973;-54
2022/09/15 10:45:17;;;;;;;;;;;;;;;17.46;56.25;100014.16;4969356;28;19981;-55
2022/09/15 10:48:18;;;;;;;;;;;;;;;17.47;56.34;100009.69;4966975;28;19929;-54
2022/09/15 10:50:55;;;;;;;;;;;;;;;17.51;56.01;100032.31;4873737;29;20007;-56
2022/09/15 10:53:35;;;;;;;;;;;;;;;17.52;56.18;100018.88;4957344;28;20409;-55
2022/09/15 10:56:13;;;;;;;;;;;;;;;17.51;56.46;100011.88;4968909;28;19964;-55
2022/09/15 10:58:38;;;;;;;;;;;;;;;17.57;56.16;100023.72;4969905;28;19929;-56
2022/09/15 11:01:22;;;;;;;;;;;;;;;17.56;56.34;100032.69;4971362;28;19945;-56
2022/09/15 11:04:07;;;;;;;;;;;;;;;17.55;56.23;100022.19;4967870;28;19933;-55
2022/09/15 11:06:32;;;;;;;;;;;;;;;17.52;56.09;100026.00;4964923;28;19926;-54
2022/09/15 11:09:11;;;;;;;;;;;;;;;17.52;56.40;100026.84;4969354;28;19933;-57
2022/09/15 11:11:51;;;;;;;;;;;;;;;17.53;56.54;100022.34;4967043;28;20032;-55
2022/09/15 11:14:37;;;;;;;;;;;;;;;17.57;56.39;100021.06;4967997;28;19957;-56
2022/09/15 11:17:21;;;;;;;;;;;;;;;17.60;56.27;100039.41;4970100;28;19949;-55
2022/09/15 11:19:49;;;;;;;;;;;;;;;17.62;56.00;100034.72;4970977;28;20485;-56
2022/09/15 11:22:21;;;;;;;;;;;;;;;17.64;56.33;100029.28;4966351;28;19965;-56
2022/09/15 11:24:49;;;;;;;;;;;;;;;17.71;56.16;100019.69;4968808;28;19918;-55
2022/09/15 11:27:20;;;;;;;;;;;;;;;17.79;56.16;100021.56;4968746;28;20350;-55
2022/09/15 11:29:45;;;;;;;;;;;;;;;17.87;56.03;100013.69;4970170;28;20408;-55
2022/09/15 11:32:14;;;;;;;;;;;;;;;17.94;55.91;100009.41;4969218;28;20481;-55
2022/09/15 11:34:48;;;;;;;;;;;;;;;18.01;55.42;100014.13;4969703;28;19985;-55
2022/09/15 11:37:16;;;;;;;;;;;;;;;18.07;55.31;100016.19;4966475;28;19927;-57
2022/09/15 11:39:52;;;;;;;;;;;;;;;18.11;55.13;100020.19;4965218;28;19931;-57
2022/09/15 11:42:21;;;;;;;;;;;;;;;18.10;54.69;100007.88;4968898;28;19917;-54
2022/09/15 11:44:46;;;;;;;;;;;;;;;18.10;54.62;100019.38;4965811;28;19926;-58
2022/09/15 11:47:21;;;;;;;;;;;;;;;18.13;54.72;100023.53;4966679;28;19935;-54
2022/09/15 11:49:52;;;;;;;;;;;;;;;18.20;54.67;100016.63;4969181;28;19928;-56
2022/09/15 11:52:36;;;;;;;;;;;;;;;18.27;54.60;100022.16;4964018;28;19929;-58
2022/09/15 11:55:07;;;;;;;;;;;;;;;18.32;53.82;100011.84;4968817;28;19929;-58
2022/09/15 11:57:39;;;;;;;;;;;;;;;18.39;54.24;100006.72;4966860;28;20848;-54
2022/09/15 12:00:11;;;;;;;;;;;;;;;18.46;53.70;100017.56;4969317;28;19933;-57
2022/09/15 12:02:45;;;;;;;;;;;;;;;18.55;53.54;100014.81;4964532;28;19921;-54
2022/09/15 12:05:22;;;;;;;;;;;;;;;18.64;53.48;100001.53;4964909;28;20166;-57
2022/09/15 12:08:04;;;;;;;;;;;;;;;18.68;53.21;100000.25;4968224;28;19926;-57
2022/09/15 12:10:34;;;;;;;;;;;;;;;18.70;53.27;100006.22;4964378;28;19945;-57
2022/09/15 12:13:00;;;;;;;;;;;;;;;18.76;52.92;100002.91;4967894;28;19921;-56
2022/09/15 12:15:28;;;;;;;;;;;;;;;18.77;52.78;100004.59;4968591;28;19928;-55
2022/09/15 12:17:58;;;;;;;;;;;;;;;18.72;52.63;99997.09;4968311;28;19932;-56
2022/09/15 12:20:42;;;;;;;;;;;;;;;18.74;52.90;100010.25;4967468;28;19948;-54
2022/09/15 12:23:40;;;;;;;;;;;;;;;18.70;52.23;99999.06;4964474;28;19969;-57
2022/09/15 12:26:05;;;;;;;;;;;;;;;18.68;51.85;100006.38;4929437;28;20346;-55
2022/09/15 12:28:38;;;;;;;;;;;;;;;18.67;51.88;100017.22;4957083;28;19965;-57
2022/09/15 12:31:23;;;;;;;;;;;;;;;18.67;51.58;100017.22;4959363;28;19930;-55
2022/09/15 12:33:56;;;;;;;;;;;;;;;18.70;51.49;100003.56;4958861;28;19973;-54
2022/09/15 12:36:34;;;;;;;;;;;;;;;18.75;51.22;100011.91;4959211;28;19925;-56
2022/09/15 12:39:00;;;;;;;;;;;;;;;18.83;50.90;100019.94;4956531;28;19933;-56
2022/09/15 12:41:26;;;;;;;;;;;;;;;18.91;50.33;100020.97;4956550;28;20289;-55
2022/09/15 12:43:54;;;;;;;;;;;;;;;18.96;50.26;100005.38;4958634;28;19922;-56
2022/09/15 12:46:20;;;;;;;;;;;;;;;19.03;49.89;100023.22;4961748;28;20017;-54
2022/09/15 12:48:46;;;;;;;;;;;;;;;19.05;49.43;100017.72;4957434;28;19930;-55
2022/09/15 12:51:20;;;;;;;;;;;;;;;19.06;49.55;100003.38;4960096;28;19926;-54
2022/09/15 12:53:45;;;;;;;;;;;;;;;19.08;49.14;99998.75;4962535;28;19957;-55